Miers Lake, Alaska
Current Conditions -  °F | °C
As of 8:53 AM on Wednesday 26 Nov 2014 (Local Time) from PAOR Reporting Station
Light Snow Light Snow  
Wind Chill:   Ceiling: 2100
Heat Index:   Visibility: 2mi
Dew Point:   Wind: 0mph
Humidity: 84%   Direction: NA
Pressure: 30.36"   Gusts: NA
Location:  62.4028°N, 143.162°W
Report Text: PAOR 261753Z 00000KT 2SM -SN BKN021 BKN030 OVC043 M15/M17 A3036 RMK AO2 SLP344 4/006 T11501172 11150 21167 50006
Loading
Personal Weather Stations






























Interactive Weather Map New forecast layout! Learn more

10-Day Weather Forecast

Advertisements
Track Severe Weather on mobile